Time;durP1;ratioP1;P1;durP2;ratioP2;P2;SDS_P1;SDS_P2;PMS_P1;PMS_P2;Temp;Humidity;BMP_temperature;BMP_pressure;BME280_temperature;BME280_humidity;BME280_pressure;Samples;Min_cycle;Max_cycle;Signal;HPM_P1;HPM_P2
2023/12/16 00:01:52;;;;;;;8.27;3.72;;;9.10;99.90;;;;;;5112484;28;20050;-67
2023/12/16 00:04:17;;;;;;;15.75;4.30;;;9.10;99.90;;;;;;5112342;28;20040;-67
2023/12/16 00:06:43;;;;;;;13.95;4.57;;;9.10;99.90;;;;;;5112400;28;20032;-67
2023/12/16 00:09:09;;;;;;;13.02;4.60;;;9.10;99.90;;;;;;5112463;28;20022;-67
2023/12/16 00:11:34;;;;;;;9.93;4.28;;;9.10;99.90;;;;;;5112329;28;20517;-67
2023/12/16 00:14:00;;;;;;;12.52;4.30;;;9.10;99.90;;;;;;5112344;28;20122;-68
2023/12/16 00:16:25;;;;;;;13.75;4.57;;;9.00;99.90;;;;;;5112229;28;20028;-67
2023/12/16 00:18:52;;;;;;;14.07;4.18;;;9.10;99.90;;;;;;5112262;28;20028;-67
2023/12/16 00:21:17;;;;;;;12.23;4.20;;;9.10;99.90;;;;;;5112199;28;20016;-67
2023/12/16 00:23:43;;;;;;;16.45;4.63;;;9.00;99.90;;;;;;5111113;28;20032;-67
2023/12/16 00:26:09;;;;;;;13.00;4.35;;;9.00;99.90;;;;;;5112240;28;20035;-67
2023/12/16 00:28:35;;;;;;;16.77;4.70;;;9.10;99.90;;;;;;5112280;28;20020;-67
2023/12/16 00:31:00;;;;;;;11.40;4.60;;;9.10;99.90;;;;;;5111966;28;20028;-67
2023/12/16 00:33:26;;;;;;;16.13;5.05;;;9.10;99.90;;;;;;5111999;28;20028;-67
2023/12/16 00:35:51;;;;;;;16.27;5.10;;;9.10;99.90;;;;;;5114119;28;20042;-67
2023/12/16 00:38:17;;;;;;;9.65;4.65;;;9.10;99.90;;;;;;5116130;28;20402;-67
2023/12/16 00:40:43;;;;;;;10.18;4.40;;;9.10;99.90;;;;;;5116074;28;20021;-67
2023/12/16 00:43:08;;;;;;;12.13;4.20;;;9.10;99.90;;;;;;5116133;28;20032;-67
2023/12/16 00:45:34;;;;;;;14.02;5.18;;;9.10;99.90;;;;;;5115955;28;20023;-67
2023/12/16 00:48:00;;;;;;;16.60;5.10;;;9.10;99.90;;;;;;5115716;28;20387;-67
2023/12/16 00:50:25;;;;;;;12.60;5.13;;;9.10;99.90;;;;;;5115895;28;20032;-68
2023/12/16 00:52:51;;;;;;;12.80;4.65;;;9.10;99.90;;;;;;5115830;28;20084;-67
2023/12/16 00:55:16;;;;;;;12.57;4.82;;;9.10;99.90;;;;;;5115759;28;20036;-68
2023/12/16 00:57:42;;;;;;;18.25;4.68;;;9.20;99.90;;;;;;5114774;28;20096;-68
2023/12/16 01:00:08;;;;;;;18.15;4.72;;;9.10;99.90;;;;;;5115539;28;20045;-67
2023/12/16 01:02:34;;;;;;;8.85;4.05;;;9.20;99.90;;;;;;5115442;28;20031;-67
2023/12/16 01:04:59;;;;;;;14.40;4.95;;;9.10;99.90;;;;;;5115586;28;20036;-67
2023/12/16 01:07:25;;;;;;;11.50;4.32;;;9.20;99.90;;;;;;5115467;28;20054;-68
2023/12/16 01:09:51;;;;;;;10.75;4.57;;;9.10;99.90;;;;;;5115500;28;20036;-67
2023/12/16 01:12:17;;;;;;;12.20;4.55;;;9.10;99.90;;;;;;5115495;28;20023;-68
2023/12/16 01:14:43;;;;;;;11.93;4.25;;;9.10;99.90;;;;;;5115360;28;20514;-67
2023/12/16 01:17:08;;;;;;;11.93;4.45;;;9.10;99.90;;;;;;5115169;28;20042;-68
2023/12/16 01:19:34;;;;;;;11.07;4.50;;;9.20;99.90;;;;;;5114216;28;20028;-68
2023/12/16 01:21:59;;;;;;;8.88;4.00;;;9.20;99.90;;;;;;5115166;28;20020;-67
2023/12/16 01:24:25;;;;;;;14.35;4.78;;;9.20;99.90;;;;;;5115197;28;20024;-68
2023/12/16 01:26:51;;;;;;;12.27;4.18;;;9.10;99.90;;;;;;5097210;28;20032;-67
2023/12/16 01:29:17;;;;;;;10.23;3.80;;;9.10;99.90;;;;;;5115099;28;20032;-67
2023/12/16 01:31:43;;;;;;;11.30;4.07;;;9.10;99.90;;;;;;5114845;28;20025;-67
2023/12/16 01:34:08;;;;;;;15.82;4.80;;;9.10;99.90;;;;;;5115101;28;20054;-67
2023/12/16 01:36:34;;;;;;;12.48;4.43;;;9.00;99.90;;;;;;5114952;28;20032;-66
2023/12/16 01:39:00;;;;;;;15.27;4.18;;;9.10;99.90;;;;;;5114940;28;20031;-66
2023/12/16 01:41:25;;;;;;;11.07;3.95;;;9.10;99.90;;;;;;5114860;28;20046;-66
2023/12/16 01:43:51;;;;;;;11.20;4.35;;;9.10;99.90;;;;;;5114903;28;20032;-66
2023/12/16 01:46:18;;;;;;;9.25;3.80;;;9.10;99.90;;;;;;5113960;28;20020;-66
2023/12/16 01:48:44;;;;;;;7.90;3.30;;;9.10;99.90;;;;;;5114002;28;20052;-66
2023/12/16 01:51:11;;;;;;;8.57;3.50;;;9.10;99.90;;;;;;5114691;28;20059;-66
2023/12/16 01:53:39;;;;;;;13.60;4.10;;;9.10;99.90;;;;;;5114664;28;20020;-67
2023/12/16 01:56:06;;;;;;;12.82;3.35;;;9.10;99.90;;;;;;5114557;28;20123;-66
2023/12/16 01:58:32;;;;;;;12.95;3.35;;;9.10;99.90;;;;;;5113463;28;20085;-66
2023/12/16 02:00:58;;;;;;;10.65;3.30;;;9.10;99.90;;;;;;5114234;28;20088;-66
2023/12/16 02:03:27;;;;;;;10.23;3.45;;;9.10;99.90;;;;;;5114500;28;20024;-66
2023/12/16 02:05:53;;;;;;;9.05;3.20;;;9.10;99.90;;;;;;5114427;28;20050;-66
2023/12/16 02:08:18;;;;;;;7.57;3.03;;;9.10;99.90;;;;;;5114413;28;20645;-66
2023/12/16 02:10:44;;;;;;;13.45;4.13;;;9.10;99.90;;;;;;5114386;28;20049;-67
2023/12/16 02:13:10;;;;;;;12.93;3.15;;;9.00;99.90;;;;;;5114268;28;20051;-67
2023/12/16 02:15:35;;;;;;;10.23;3.28;;;9.00;99.90;;;;;;5114060;28;20028;-67
2023/12/16 02:18:01;;;;;;;9.25;3.55;;;9.00;99.90;;;;;;5114180;28;20036;-66
2023/12/16 02:20:27;;;;;;;10.93;3.03;;;9.00;99.90;;;;;;5113999;28;20088;-66
2023/12/16 02:22:54;;;;;;;10.52;3.35;;;8.90;99.90;;;;;;5114082;28;20024;-66
2023/12/16 02:25:19;;;;;;;11.85;3.45;;;8.90;99.90;;;;;;5114111;28;20020;-66
2023/12/16 02:27:46;;;;;;;5.82;3.03;;;8.90;99.90;;;;;;5114071;28;20032;-66
2023/12/16 02:30:12;;;;;;;9.50;3.25;;;8.90;99.90;;;;;;5113714;28;20050;-66
2023/12/16 02:32:38;;;;;;;12.35;3.22;;;8.80;99.90;;;;;;5113924;28;20015;-66
2023/12/16 02:35:05;;;;;;;7.60;3.03;;;8.80;99.90;;;;;;5113796;28;20020;-66
2023/12/16 02:37:31;;;;;;;8.80;2.72;;;8.80;99.90;;;;;;5113763;28;20028;-67
2023/12/16 02:39:57;;;;;;;12.55;2.75;;;8.80;99.90;;;;;;5113767;28;20024;-66
2023/12/16 02:42:22;;;;;;;11.73;2.90;;;8.70;99.90;;;;;;5113604;28;20081;-66
2023/12/16 02:44:48;;;;;;;10.68;3.33;;;8.70;99.90;;;;;;5113663;28;20036;-66
2023/12/16 02:47:14;;;;;;;10.75;2.72;;;8.70;99.90;;;;;;5113382;28;20036;-66
2023/12/16 02:49:40;;;;;;;16.50;3.45;;;8.70;99.90;;;;;;5112539;28;20058;-66
2023/12/16 02:52:06;;;;;;;8.63;2.65;;;8.60;99.90;;;;;;5113530;28;20094;-66
2023/12/16 02:54:32;;;;;;;7.60;2.90;;;8.60;99.90;;;;;;5113385;28;20032;-66
2023/12/16 02:56:58;;;;;;;11.75;3.05;;;8.50;99.90;;;;;;5113354;28;20080;-66
2023/12/16 02:59:23;;;;;;;10.75;3.28;;;8.50;99.90;;;;;;5113135;28;20452;-66
2023/12/16 03:01:49;;;;;;;8.65;2.90;;;8.50;99.90;;;;;;5113185;28;20024;-66
2023/12/16 03:04:14;;;;;;;12.45;3.00;;;8.40;99.90;;;;;;5113413;28;20030;-66
2023/12/16 03:06:43;;;;;;;14.10;2.92;;;8.40;99.90;;;;;;5113297;28;20028;-66
2023/12/16 03:09:09;;;;;;;12.00;3.30;;;8.30;99.90;;;;;;5113233;28;20027;-66
2023/12/16 03:11:35;;;;;;;9.55;3.20;;;8.20;99.90;;;;;;5113125;28;20028;-67
2023/12/16 03:14:00;;;;;;;6.32;2.85;;;8.20;99.90;;;;;;5112160;28;20028;-66
2023/12/16 03:16:26;;;;;;;5.32;2.17;;;8.20;99.90;;;;;;5112952;28;20056;-66
2023/12/16 03:18:51;;;;;;;7.68;3.05;;;8.10;99.90;;;;;;5113143;28;20071;-67
2023/12/16 03:21:17;;;;;;;11.63;4.05;;;8.10;99.90;;;;;;5112964;28;20490;-66
2023/12/16 03:23:43;;;;;;;8.90;2.70;;;8.10;99.90;;;;;;5113011;28;20027;-66
2023/12/16 03:26:09;;;;;;;8.63;2.78;;;8.10;99.90;;;;;;5112918;28;20486;-66
2023/12/16 03:28:35;;;;;;;6.00;2.67;;;8.10;99.90;;;;;;5113004;28;20418;-66
2023/12/16 03:31:00;;;;;;;11.38;3.58;;;8.00;99.90;;;;;;5112760;28;20036;-66
2023/12/16 03:33:26;;;;;;;10.27;3.35;;;8.00;99.90;;;;;;5112774;28;20383;-66
2023/12/16 03:35:51;;;;;;;11.02;2.92;;;8.00;99.90;;;;;;5112790;28;20043;-66
2023/12/16 03:38:17;;;;;;;8.65;2.65;;;8.00;99.90;;;;;;5112897;28;20028;-66
2023/12/16 03:40:43;;;;;;;5.35;2.45;;;8.00;99.90;;;;;;5112666;28;20028;-66
2023/12/16 03:43:08;;;;;;;7.18;2.50;;;7.90;99.90;;;;;;5112680;28;20028;-66
2023/12/16 03:45:34;;;;;;;8.23;2.67;;;7.90;99.90;;;;;;5112624;28;20028;-66
2023/12/16 03:48:00;;;;;;;9.32;2.90;;;7.90;99.90;;;;;;5112539;28;20051;-66
2023/12/16 03:50:25;;;;;;;11.90;2.75;;;7.90;99.90;;;;;;5111644;28;20513;-66
2023/12/16 03:52:51;;;;;;;9.00;2.95;;;7.80;99.90;;;;;;5112621;28;20020;-66
2023/12/16 03:55:16;;;;;;;7.07;2.60;;;7.80;99.90;;;;;;5112360;28;20490;-67
2023/12/16 03:57:42;;;;;;;6.78;2.72;;;7.80;99.90;;;;;;5112620;28;20034;-65
2023/12/16 04:00:08;;;;;;;5.97;2.67;;;7.80;99.90;;;;;;5112429;28;20016;-66
2023/12/16 04:02:34;;;;;;;8.23;2.72;;;7.80;99.90;;;;;;5112557;28;20020;-66
2023/12/16 04:05:00;;;;;;;9.10;2.80;;;7.80;99.90;;;;;;5112636;28;20043;-66
2023/12/16 04:07:25;;;;;;;5.90;2.60;;;7.80;99.90;;;;;;5112556;28;20112;-66
2023/12/16 04:09:51;;;;;;;12.05;2.88;;;7.80;99.90;;;;;;5112969;28;20031;-66
2023/12/16 04:12:16;;;;;;;11.57;2.97;;;7.80;99.90;;;;;;5115620;28;20390;-66
2023/12/16 04:14:42;;;;;;;9.02;2.80;;;7.90;99.90;;;;;;5115525;28;20103;-66
2023/12/16 04:17:08;;;;;;;7.30;3.08;;;7.90;99.90;;;;;;5116527;28;20111;-66
2023/12/16 04:19:33;;;;;;;10.63;3.00;;;7.90;99.90;;;;;;5116531;28;20024;-66
2023/12/16 04:21:59;;;;;;;12.85;3.08;;;7.90;99.90;;;;;;5116467;28;20084;-66
2023/12/16 04:24:24;;;;;;;8.55;3.00;;;7.90;99.90;;;;;;5116306;28;20030;-67
2023/12/16 04:26:50;;;;;;;8.55;2.85;;;7.90;99.90;;;;;;5116150;28;20059;-66
2023/12/16 04:29:16;;;;;;;14.93;3.58;;;8.00;99.90;;;;;;5116324;28;20008;-66
2023/12/16 04:31:42;;;;;;;9.20;2.90;;;8.00;99.90;;;;;;5116129;28;20036;-67
2023/12/16 04:34:07;;;;;;;11.07;3.00;;;8.10;99.90;;;;;;5116234;28;20043;-67
2023/12/16 04:36:33;;;;;;;7.57;3.38;;;8.10;99.90;;;;;;5116200;28;20084;-67
2023/12/16 04:39:00;;;;;;;13.43;3.17;;;8.20;99.90;;;;;;5116196;28;20028;-66
2023/12/16 04:41:25;;;;;;;9.93;2.97;;;8.20;99.90;;;;;;5116177;28;20023;-66
2023/12/16 04:43:53;;;;;;;11.02;3.55;;;8.20;99.90;;;;;;5116197;28;20020;-66
2023/12/16 04:46:22;;;;;;;8.90;3.63;;;8.20;99.90;;;;;;5115931;28;20035;-67
2023/12/16 04:48:48;;;;;;;9.40;3.42;;;8.30;99.90;;;;;;5115871;28;20066;-66
2023/12/16 04:51:13;;;;;;;11.70;3.72;;;8.30;99.90;;;;;;5115882;28;20024;-66
2023/12/16 04:53:39;;;;;;;9.63;3.20;;;8.40;99.90;;;;;;5115759;28;20024;-66
2023/12/16 04:56:05;;;;;;;7.93;2.97;;;8.40;99.90;;;;;;5115753;28;20069;-66
2023/12/16 04:58:31;;;;;;;10.77;3.05;;;8.40;99.90;;;;;;5115851;28;20043;-66
2023/12/16 05:00:57;;;;;;;13.05;3.45;;;8.40;99.90;;;;;;5115536;28;20024;-66
2023/12/16 05:03:23;;;;;;;11.93;3.35;;;8.50;99.90;;;;;;5115737;28;20041;-69
2023/12/16 05:05:48;;;;;;;10.88;3.63;;;8.40;99.90;;;;;;5114655;28;20070;-67
2023/12/16 05:08:14;;;;;;;11.30;3.92;;;8.40;99.90;;;;;;5115590;28;20479;-68
2023/12/16 05:10:41;;;;;;;9.18;3.15;;;8.40;99.90;;;;;;5115533;28;20028;-66
2023/12/16 05:13:10;;;;;;;10.18;3.45;;;8.40;99.90;;;;;;5115586;28;20027;-66
2023/12/16 05:15:38;;;;;;;11.07;3.22;;;8.30;99.90;;;;;;5115340;28;20025;-68
2023/12/16 05:18:03;;;;;;;8.27;3.25;;;8.30;99.90;;;;;;5115412;28;20039;-68
2023/12/16 05:20:29;;;;;;;13.82;3.70;;;8.30;99.90;;;;;;5115353;28;20028;-67
2023/12/16 05:22:54;;;;;;;14.30;3.53;;;8.30;99.90;;;;;;5115162;28;20027;-67
2023/12/16 05:25:20;;;;;;;9.35;3.67;;;8.20;99.90;;;;;;5115278;28;20407;-67
2023/12/16 05:27:46;;;;;;;12.82;3.67;;;8.20;99.90;;;;;;5115151;28;20028;-68
2023/12/16 05:30:12;;;;;;;9.65;3.25;;;8.10;99.90;;;;;;5113996;28;20043;-67
2023/12/16 05:32:37;;;;;;;10.57;2.90;;;8.10;99.90;;;;;;5115231;28;20065;-67
2023/12/16 05:35:03;;;;;;;9.13;3.30;;;8.10;99.90;;;;;;5114986;28;20047;-67
2023/12/16 05:37:29;;;;;;;17.15;3.50;;;8.10;99.90;;;;;;5115003;28;20020;-66
2023/12/16 05:39:54;;;;;;;14.70;4.00;;;8.00;99.90;;;;;;5114965;28;20098;-68
2023/12/16 05:42:20;;;;;;;9.15;3.95;;;8.00;99.90;;;;;;5113976;28;20028;-67
2023/12/16 05:44:47;;;;;;;12.52;3.47;;;8.00;99.90;;;;;;5114931;28;20056;-66
2023/12/16 05:47:12;;;;;;;6.80;3.33;;;7.90;99.90;;;;;;5114691;28;20055;-66
2023/12/16 05:49:38;;;;;;;9.05;3.55;;;7.90;99.90;;;;;;5113873;28;20040;-66
2023/12/16 05:52:04;;;;;;;13.18;3.65;;;7.90;99.90;;;;;;5113718;28;20042;-67
2023/12/16 05:54:30;;;;;;;13.32;3.00;;;7.90;99.90;;;;;;5114814;28;20024;-66
2023/12/16 05:56:55;;;;;;;17.27;3.80;;;7.90;99.90;;;;;;5114728;28;20028;-67
2023/12/16 05:59:21;;;;;;;13.90;3.40;;;7.90;99.90;;;;;;5114701;28;20084;-66
2023/12/16 06:01:46;;;;;;;13.30;3.47;;;7.80;99.90;;;;;;5113542;28;20031;-67
2023/12/16 06:04:13;;;;;;;9.65;3.63;;;7.80;99.90;;;;;;5114750;28;20027;-66
2023/12/16 06:06:39;;;;;;;14.60;4.05;;;7.80;99.90;;;;;;5114502;28;20035;-65
2023/12/16 06:09:04;;;;;;;11.77;3.63;;;7.80;99.90;;;;;;5114483;28;20036;-66
2023/12/16 06:11:30;;;;;;;11.18;3.75;;;7.70;99.90;;;;;;5114402;28;20032;-67
2023/12/16 06:13:55;;;;;;;8.73;3.10;;;7.70;99.90;;;;;;5114450;28;20062;-66
2023/12/16 06:16:21;;;;;;;10.40;3.58;;;7.60;99.90;;;;;;5114262;28;20040;-66
2023/12/16 06:18:50;;;;;;;12.27;3.38;;;7.60;99.90;;;;;;5114311;28;20024;-67
2023/12/16 06:21:16;;;;;;;8.63;2.92;;;7.60;99.90;;;;;;5114081;28;20444;-67
2023/12/16 06:23:42;;;;;;;11.45;3.05;;;7.60;99.90;;;;;;5114258;28;20023;-67
2023/12/16 06:26:07;;;;;;;13.80;3.22;;;7.60;99.90;;;;;;5114225;28;20028;-66
2023/12/16 06:28:33;;;;;;;7.28;3.05;;;7.60;99.90;;;;;;5114145;28;20032;-67
2023/12/16 06:30:59;;;;;;;10.85;3.40;;;7.60;99.90;;;;;;5113856;28;20031;-67
2023/12/16 06:33:25;;;;;;;10.95;3.20;;;7.60;99.90;;;;;;5112393;28;20517;-67
2023/12/16 06:35:51;;;;;;;10.43;3.67;;;7.60;99.90;;;;;;5113840;28;20104;-67
2023/12/16 06:38:16;;;;;;;8.13;3.20;;;7.60;99.90;;;;;;5113867;28;20028;-67
2023/12/16 06:40:42;;;;;;;10.23;3.25;;;7.50;99.90;;;;;;5113930;28;20031;-67
2023/12/16 06:43:08;;;;;;;12.32;3.20;;;7.50;99.90;;;;;;5113730;28;20039;-67
2023/12/16 06:45:33;;;;;;;12.45;3.35;;;7.60;99.90;;;;;;5113813;28;20032;-67
2023/12/16 06:48:00;;;;;;;9.70;2.67;;;7.60;99.90;;;;;;5113561;28;20066;-67
2023/12/16 06:50:26;;;;;;;10.88;2.50;;;7.60;99.90;;;;;;5113635;28;20024;-67
2023/12/16 06:52:51;;;;;;;10.95;3.50;;;7.60;99.90;;;;;;5113649;28;20043;-67
2023/12/16 06:55:17;;;;;;;12.60;3.05;;;7.60;99.90;;;;;;5113521;28;20036;-67
2023/12/16 06:57:44;;;;;;;9.55;3.20;;;7.60;99.90;;;;;;5113530;28;20045;-67
2023/12/16 07:00:10;;;;;;;8.23;2.65;;;7.60;99.90;;;;;;5113215;28;20020;-67
2023/12/16 07:02:43;;;;;;;15.32;3.88;;;7.60;99.90;;;;;;5112476;28;20020;-68
2023/12/16 07:05:10;;;;;;;10.70;3.63;;;7.60;99.90;;;;;;5113296;28;20028;-68
2023/12/16 07:07:36;;;;;;;5.53;2.58;;;7.60;99.90;;;;;;5113330;28;20035;-67
2023/12/16 07:10:04;;;;;;;13.73;3.30;;;7.60;99.90;;;;;;5113275;28;20088;-68
2023/12/16 07:12:29;;;;;;;8.45;2.53;;;7.60;99.90;;;;;;5113333;28;20360;-67
2023/12/16 07:14:55;;;;;;;9.40;2.75;;;7.60;99.90;;;;;;5113129;28;20043;-67
2023/12/16 07:17:20;;;;;;;11.75;2.65;;;7.60;99.90;;;;;;5113182;28;20032;-67
2023/12/16 07:19:46;;;;;;;10.68;3.03;;;7.60;99.90;;;;;;5112956;28;20024;-67
2023/12/16 07:22:16;;;;;;;11.85;3.10;;;7.60;99.90;;;;;;5112194;28;20028;-67
2023/12/16 07:24:41;;;;;;;10.82;3.55;;;7.60;99.90;;;;;;5113105;28;20072;-67
2023/12/16 07:27:07;;;;;;;10.52;2.80;;;7.60;99.90;;;;;;5111962;28;20039;-67
2023/12/16 07:29:34;;;;;;;11.82;2.97;;;7.60;99.90;;;;;;5112740;28;20020;-67
2023/12/16 07:32:00;;;;;;;6.68;2.80;;;7.60;99.90;;;;;;5112864;28;20095;-68
2023/12/16 07:34:25;;;;;;;9.25;2.55;;;7.60;99.90;;;;;;5112864;28;20061;-67
2023/12/16 07:36:51;;;;;;;13.73;3.80;;;7.50;99.90;;;;;;5112732;28;20032;-65
2023/12/16 07:39:17;;;;;;;11.10;3.08;;;7.60;99.90;;;;;;5112725;28;20047;-65
2023/12/16 07:41:42;;;;;;;10.13;2.75;;;7.50;99.90;;;;;;5112793;28;20505;-65
2023/12/16 07:44:08;;;;;;;10.50;2.63;;;7.50;99.90;;;;;;5112318;28;20016;-66
2023/12/16 07:46:33;;;;;;;9.55;3.15;;;7.50;99.90;;;;;;5112124;28;20042;-66
2023/12/16 07:48:59;;;;;;;12.07;2.90;;;7.50;99.90;;;;;;5112520;28;20048;-65
2023/12/16 07:51:25;;;;;;;10.18;2.60;;;7.50;99.90;;;;;;5112562;28;20036;-66
2023/12/16 07:53:53;;;;;;;7.60;3.13;;;7.40;99.90;;;;;;5112701;28;20028;-66
2023/12/16 07:56:26;;;;;;;9.85;2.55;;;7.40;99.90;;;;;;5112457;28;20027;-66
2023/12/16 07:58:52;;;;;;;12.57;3.30;;;7.40;99.90;;;;;;5112627;28;20024;-64
2023/12/16 08:01:18;;;;;;;11.73;2.92;;;7.40;99.90;;;;;;5112337;28;20039;-66
2023/12/16 08:03:45;;;;;;;10.48;2.63;;;7.40;99.90;;;;;;5112583;28;20033;-65
2023/12/16 08:06:11;;;;;;;6.07;2.53;;;7.50;99.90;;;;;;5112512;28;20028;-65
2023/12/16 08:08:38;;;;;;;7.47;2.70;;;7.50;99.90;;;;;;5112564;28;20039;-65
2023/12/16 08:11:04;;;;;;;13.38;2.65;;;7.50;99.90;;;;;;5112475;28;20020;-64
2023/12/16 08:13:30;;;;;;;10.00;2.35;;;7.60;99.90;;;;;;5112576;28;20031;-65
2023/12/16 08:15:56;;;;;;;13.45;3.20;;;7.60;99.90;;;;;;5112256;28;20040;-65
2023/12/16 08:18:21;;;;;;;10.90;2.80;;;7.60;99.90;;;;;;5112403;28;20024;-65
2023/12/16 08:20:47;;;;;;;8.45;2.67;;;7.60;99.90;;;;;;5111229;28;20028;-65
2023/12/16 08:23:13;;;;;;;12.57;2.85;;;7.60;99.90;;;;;;5112485;28;20043;-66
2023/12/16 08:25:39;;;;;;;13.13;3.08;;;7.70;99.90;;;;;;5112487;28;20024;-65
2023/12/16 08:28:05;;;;;;;8.35;2.88;;;7.70;99.90;;;;;;5112315;28;20024;-65
2023/12/16 08:30:31;;;;;;;10.07;3.22;;;7.70;99.90;;;;;;5111977;28;20028;-65
2023/12/16 08:32:56;;;;;;;9.13;2.80;;;7.80;99.90;;;;;;5112223;28;20028;-65
2023/12/16 08:35:22;;;;;;;8.82;2.78;;;7.80;99.90;;;;;;5112179;28;20089;-66
2023/12/16 08:37:47;;;;;;;5.35;2.60;;;7.80;99.90;;;;;;5112145;28;20267;-65
2023/12/16 08:40:13;;;;;;;7.25;2.47;;;7.80;99.90;;;;;;5111090;28;20034;-66
2023/12/16 08:42:42;;;;;;;11.57;2.63;;;7.90;99.90;;;;;;5106940;28;20024;-65
2023/12/16 08:45:12;;;;;;;11.95;3.13;;;7.90;99.90;;;;;;5102087;28;20029;-65
2023/12/16 08:47:38;;;;;;;7.50;2.60;;;7.90;99.90;;;;;;5091545;28;20056;-66
2023/12/16 08:50:05;;;;;;;6.63;2.33;;;8.00;99.90;;;;;;5089733;28;20089;-67
2023/12/16 08:52:31;;;;;;;9.43;2.97;;;8.00;99.90;;;;;;5089969;28;20081;-65
2023/12/16 08:54:57;;;;;;;12.00;2.50;;;8.00;99.90;;;;;;5090572;28;20052;-67
2023/12/16 08:57:23;;;;;;;14.63;2.47;;;8.10;99.90;;;;;;5093293;28;20080;-66
2023/12/16 08:59:49;;;;;;;7.53;2.22;;;8.10;99.90;;;;;;5094561;28;20017;-66
2023/12/16 09:02:15;;;;;;;9.25;2.80;;;8.10;99.90;;;;;;5095000;28;20032;-66
2023/12/16 09:04:40;;;;;;;10.48;2.35;;;8.20;99.90;;;;;;5095154;28;20028;-64
2023/12/16 09:07:06;;;;;;;8.43;2.55;;;8.30;99.90;;;;;;5095424;28;20048;-66
2023/12/16 09:09:31;;;;;;;14.75;2.88;;;8.30;99.90;;;;;;5095420;28;20074;-67
2023/12/16 09:11:57;;;;;;;8.32;2.25;;;8.30;99.90;;;;;;5095242;28;20029;-66
2023/12/16 09:14:23;;;;;;;15.13;2.92;;;8.40;99.90;;;;;;5095295;28;20025;-66
2023/12/16 09:16:48;;;;;;;10.68;2.63;;;8.50;99.90;;;;;;5095075;28;20032;-65
2023/12/16 09:19:14;;;;;;;7.82;2.53;;;8.60;99.90;;;;;;5095290;28;20060;-66
2023/12/16 09:21:41;;;;;;;12.02;2.83;;;8.70;99.90;;;;;;5095083;28;20029;-66
2023/12/16 09:24:07;;;;;;;8.98;2.67;;;8.70;99.90;;;;;;5095070;28;20099;-66
2023/12/16 09:26:32;;;;;;;14.30;2.70;;;8.70;99.90;;;;;;5094931;28;20037;-66
2023/12/16 09:28:59;;;;;;;10.85;2.70;;;8.80;99.90;;;;;;5094915;28;20066;-66
2023/12/16 09:31:25;;;;;;;8.25;2.50;;;8.80;99.90;;;;;;5094617;28;20021;-66
2023/12/16 09:33:50;;;;;;;12.57;2.72;;;8.90;99.90;;;;;;5094880;28;20063;-66
2023/12/16 09:36:16;;;;;;;14.30;2.95;;;8.90;99.90;;;;;;5094778;28;20032;-66
2023/12/16 09:38:42;;;;;;;13.80;3.42;;;8.90;99.90;;;;;;5094845;28;20031;-65
2023/12/16 09:41:41;;;;;;;12.00;3.35;;;9.00;99.90;;;;;;5094702;28;20017;-66
2023/12/16 09:44:08;;;;;;;9.57;2.80;;;9.00;99.90;;;;;;5094668;28;20032;-66
2023/12/16 09:46:34;;;;;;;15.75;3.38;;;9.00;99.90;;;;;;5094599;28;20086;-64
2023/12/16 09:49:00;;;;;;;9.40;3.22;;;9.00;99.90;;;;;;5094467;28;20048;-65
2023/12/16 09:51:26;;;;;;;9.90;3.10;;;9.10;99.90;;;;;;5094571;28;20584;-66
2023/12/16 09:53:53;;;;;;;17.08;3.90;;;9.10;99.90;;;;;;5094410;28;20055;-65
2023/12/16 09:56:19;;;;;;;16.02;3.20;;;9.10;99.90;;;;;;5094349;28;20024;-65
2023/12/16 09:58:47;;;;;;;11.88;3.35;;;9.20;99.90;;;;;;5094416;28;20048;-64
2023/12/16 10:01:13;;;;;;;9.23;3.47;;;9.10;99.90;;;;;;5094192;28;20028;-66
2023/12/16 10:03:40;;;;;;;14.32;3.55;;;9.20;99.90;;;;;;5094382;28;20017;-66
2023/12/16 10:06:08;;;;;;;15.90;4.05;;;9.30;99.90;;;;;;5094189;28;20084;-65
2023/12/16 10:08:37;;;;;;;17.73;3.45;;;9.30;99.90;;;;;;5093123;28;20488;-66
2023/12/16 10:11:04;;;;;;;10.00;3.80;;;9.30;99.90;;;;;;5094187;28;20054;-66
2023/12/16 10:13:31;;;;;;;10.38;3.70;;;9.40;99.90;;;;;;5094136;28;20039;-66
2023/12/16 10:15:58;;;;;;;14.70;4.03;;;9.40;99.90;;;;;;5093935;28;20036;-66
2023/12/16 10:18:26;;;;;;;13.43;4.22;;;9.40;99.90;;;;;;5094080;28;20039;-66
2023/12/16 10:20:52;;;;;;;13.43;4.45;;;9.50;99.90;;;;;;5093901;28;20020;-65
2023/12/16 10:23:17;;;;;;;10.27;4.78;;;9.40;99.90;;;;;;5093965;28;20044;-66
2023/12/16 10:25:43;;;;;;;19.60;5.85;;;9.50;99.90;;;;;;5093840;28;20055;-67
2023/12/16 10:28:12;;;;;;;15.95;4.65;;;9.40;99.90;;;;;;5093818;28;20035;-66
2023/12/16 10:30:37;;;;;;;16.05;4.65;;;9.50;99.90;;;;;;5093580;28;20037;-67
2023/12/16 10:33:03;;;;;;;13.65;4.53;;;9.50;99.90;;;;;;5093660;28;20036;-67
2023/12/16 10:35:30;;;;;;;11.57;4.60;;;9.50;99.90;;;;;;5105744;28;20050;-66
2023/12/16 10:37:56;;;;;;;13.73;4.57;;;9.40;99.90;;;;;;5112351;28;20050;-66
2023/12/16 10:40:24;;;;;;;26.25;9.95;;;9.40;99.90;;;;;;5112426;28;20020;-66
2023/12/16 10:42:50;;;;;;;18.05;6.22;;;9.40;99.90;;;;;;5112577;28;20048;-66
2023/12/16 10:45:16;;;;;;;18.85;5.57;;;9.40;99.90;;;;;;5112122;28;20024;-66
2023/12/16 10:47:42;;;;;;;15.30;5.70;;;9.40;99.90;;;;;;5112313;28;20546;-65
2023/12/16 10:50:09;;;;;;;17.98;6.50;;;9.50;99.90;;;;;;5112513;28;20028;-65
2023/12/16 10:52:40;;;;;;;24.13;6.72;;;9.50;99.90;;;;;;5112945;28;20024;-67
2023/12/16 10:55:06;;;;;;;19.65;5.82;;;9.60;99.90;;;;;;5113490;28;20054;-66
2023/12/16 10:57:58;;;;;;;22.15;7.50;;;9.60;99.90;;;;;;5113541;28;20039;-66
2023/12/16 11:00:28;;;;;;;20.92;6.07;;;9.60;99.90;;;;;;5113415;28;20016;-67
2023/12/16 11:03:07;;;;;;;25.10;8.07;;;9.60;99.90;;;;;;5113513;28;20487;-66
2023/12/16 11:05:40;;;;;;;22.23;7.03;;;9.60;99.90;;;;;;5113458;28;20482;-66
2023/12/16 11:08:06;;;;;;;16.90;5.75;;;9.70;99.90;;;;;;5113439;28;20031;-66
2023/12/16 11:10:32;;;;;;;20.92;4.80;;;9.70;99.90;;;;;;5113350;28;20024;-67
2023/12/16 11:13:03;;;;;;;18.92;6.72;;;9.70;99.90;;;;;;5112162;28;20039;-66
2023/12/16 11:15:31;;;;;;;13.13;5.28;;;9.70;99.90;;;;;;5113262;28;20028;-65
2023/12/16 11:18:08;;;;;;;19.23;5.70;;;9.80;99.90;;;;;;5113192;28;20029;-66
2023/12/16 11:20:43;;;;;;;16.63;5.75;;;9.80;99.90;;;;;;5112966;28;20024;-65
2023/12/16 11:23:10;;;;;;;18.08;6.57;;;9.90;99.90;;;;;;5113175;28;20016;-65
2023/12/16 11:25:36;;;;;;;11.77;4.95;;;9.90;99.90;;;;;;5112078;28;20032;-66
2023/12/16 11:28:03;;;;;;;15.32;6.13;;;9.90;99.90;;;;;;5112967;28;20039;-67
2023/12/16 11:30:30;;;;;;;16.73;6.72;;;9.90;99.90;;;;;;5112876;28;20020;-66
2023/12/16 11:32:57;;;;;;;17.05;6.93;;;9.90;99.90;;;;;;5112978;28;20020;-65
2023/12/16 11:35:35;;;;;;;16.83;6.40;;;9.90;99.90;;;;;;5112936;28;20083;-65
2023/12/16 11:38:01;;;;;;;14.85;5.60;;;9.90;99.90;;;;;;5112752;28;20020;-67
2023/12/16 11:40:44;;;;;;;17.85;6.35;;;10.00;99.90;;;;;;5112799;28;20024;-67
2023/12/16 11:43:10;;;;;;;;;;;9.90;99.90;;;;;;5113212;28;20024;-66
2023/12/16 11:45:41;;;;;;;16.83;6.63;;;9.90;99.90;;;;;;5112705;28;19930;-66
2023/12/16 11:48:08;;;;;;;16.48;5.65;;;9.90;99.90;;;;;;5112487;28;20040;-66
2023/12/16 11:50:37;;;;;;;15.88;5.85;;;9.90;99.90;;;;;;5112788;28;20279;-66
2023/12/16 11:53:04;;;;;;;18.17;5.78;;;9.90;99.90;;;;;;5112689;28;20119;-66
2023/12/16 11:55:30;;;;;;;18.02;6.30;;;9.90;99.90;;;;;;5112717;28;20052;-65
2023/12/16 11:57:56;;;;;;;18.27;6.07;;;10.00;99.90;;;;;;5112689;28;20024;-64
2023/12/16 12:00:22;;;;;;;15.35;5.68;;;10.00;99.90;;;;;;5111395;28;20019;-67
2023/12/16 12:02:50;;;;;;;21.13;5.97;;;10.00;99.90;;;;;;5112501;28;20028;-66
2023/12/16 12:05:15;;;;;;;23.33;7.82;;;10.10;99.90;;;;;;5112576;28;20041;-65
2023/12/16 12:07:41;;;;;;;19.98;6.05;;;10.10;99.90;;;;;;5112587;28;20529;-65
2023/12/16 12:10:11;;;;;;;21.33;6.32;;;10.10;99.90;;;;;;5112688;28;20090;-66
2023/12/16 12:12:37;;;;;;;15.93;5.85;;;10.10;99.90;;;;;;5112542;28;20028;-67
2023/12/16 12:15:03;;;;;;;16.33;5.47;;;10.10;99.90;;;;;;5112428;28;20098;-65
2023/12/16 12:17:29;;;;;;;12.80;5.30;;;10.10;99.90;;;;;;5112302;28;20084;-66
2023/12/16 12:19:55;;;;;;;22.45;6.72;;;10.10;99.90;;;;;;5112292;28;20046;-66
2023/12/16 12:22:22;;;;;;;19.67;5.88;;;10.10;99.90;;;;;;5112470;28;20078;-67
2023/12/16 12:24:48;;;;;;;22.05;6.50;;;10.10;99.90;;;;;;5112300;28;20024;-67
2023/12/16 12:27:13;;;;;;;26.75;7.60;;;10.00;99.90;;;;;;5112304;28;20012;-67
2023/12/16 12:30:15;;;;;;;20.63;5.72;;;10.10;99.90;;;;;;5112197;28;20028;-67
2023/12/16 12:32:41;;;;;;;16.75;6.18;;;10.10;99.90;;;;;;5073235;28;20034;-66
2023/12/16 12:35:08;;;;;;;14.15;5.65;;;10.10;99.90;;;;;;5116318;28;20050;-67
2023/12/16 12:37:45;;;;;;;14.65;6.05;;;10.00;99.90;;;;;;5116377;28;20026;-66
2023/12/16 12:40:13;;;;;;;14.93;6.85;;;10.10;99.90;;;;;;5116364;28;20034;-65
2023/12/16 12:42:48;;;;;;;17.13;6.07;;;10.00;99.90;;;;;;5116131;28;20065;-66
2023/12/16 12:45:34;;;;;;;19.23;6.88;;;10.10;99.90;;;;;;5116187;28;20020;-66
2023/12/16 12:48:14;;;;;;;21.63;5.57;;;10.10;99.90;;;;;;5115838;28;20044;-65